Abington, Pennsylvania
Current Conditions -  °F | °C
As of 8:54 AM on Sunday 25 Jan 2015 (Local Time) from KPNE Reporting Station
Few Clouds Few Clouds  
Wind Chill:   Ceiling: Unl
Heat Index:   Visibility: 10mi
Dew Point: -3°   Wind: 10mph
Humidity: 62%   Direction: 240°WSW
Pressure: 29.79"   Gusts: NA
Location:  40.12°N, 75.12°W
Report Text: KPNE 251354Z AUTO 24009KT 10SM FEW060 04/M03 A2979 RMK AO2 SLP087 T00391028 TSNO
Loading
Personal Weather Stations






























Interactive Weather Map New forecast layout! Learn more

10-Day Weather Forecast

Advertisements
Track Severe Weather on mobile